Terminal Aerodrome Forecast
Issued by NWS Upton, NY

Home | Current Version | Previous Version | Text Only | Print | Product List | Glossary On
Versions: 1 2 3 4 5 6 7 8 9 10 11 12 13 14 15 16 17 18 19 20 21 22 23 24 25 26 27 28 29 30 31
076
FTUS41 KOKX 211933 AAA
TAFLGA
TAF AMD
KLGA 211933Z 2120/2218 19009KT P6SM BKN150
     FM212100 16007KT P6SM OVC200
     FM220100 18006KT P6SM BKN120
     FM220800 18004KT P6SM FEW020 SCT040 OVC090
      TEMPO 2212/2214 P6SM BKN030
     FM221500 23005KT P6SM OVC050=

USA.gov is the U.S. government's official web portal to all federal, state and local government web resources and services.